Time;durP1;ratioP1;P1;durP2;ratioP2;P2;SDS_P1;SDS_P2;PMS_P1;PMS_P2;Temp;Humidity;BMP_temperature;BMP_pressure;BME280_temperature;BME280_humidity;BME280_pressure;Samples;Min_cycle;Max_cycle;Signal;HPM_P1;HPM_P2
2021/12/31 00:00:39;;;;;;;7.27;2.47;;;13.90;98.90;;;;;;5017363;28;20179;-78
2021/12/31 00:03:05;;;;;;;3.00;1.63;;;13.90;98.80;;;;;;5015529;28;20417;-77
2021/12/31 00:05:31;;;;;;;3.87;1.60;;;13.90;98.70;;;;;;5014332;28;20177;-78
2021/12/31 00:07:57;;;;;;;3.30;1.90;;;13.90;98.50;;;;;;5014813;28;20164;-76
2021/12/31 00:10:22;;;;;;;3.07;1.80;;;13.90;98.30;;;;;;5013988;28;20490;-78
2021/12/31 00:12:48;;;;;;;2.77;1.40;;;13.90;98.30;;;;;;5013753;28;20215;-77
2021/12/31 00:15:14;;;;;;;3.33;1.60;;;13.90;98.30;;;;;;5018120;28;20192;-76
2021/12/31 00:17:40;;;;;;;6.53;1.90;;;13.90;98.20;;;;;;5033863;28;20183;-77
2021/12/31 00:20:15;;;;;;;7.50;1.80;;;13.90;98.30;;;;;;5034471;28;20230;-77
2021/12/31 00:25:26;;;;;;;4.60;2.40;;;13.90;98.10;;;;;;5037978;28;20446;-77
2021/12/31 00:27:52;;;;;;;6.03;1.50;;;13.90;98.00;;;;;;5039011;28;20466;-76
2021/12/31 00:30:17;;;;;;;5.90;2.00;;;13.90;98.00;;;;;;5040504;28;20498;-77
2021/12/31 00:32:44;;;;;;;7.73;2.00;;;13.90;98.00;;;;;;5039916;28;20202;-77
2021/12/31 00:35:10;;;;;;;5.03;1.93;;;13.90;98.00;;;;;;5037427;28;20405;-77
2021/12/31 00:37:38;;;;;;;3.77;1.90;;;13.90;97.90;;;;;;5038474;28;20432;-77
2021/12/31 00:40:07;;;;;;;5.30;1.73;;;13.90;97.80;;;;;;5040619;28;20511;-77
2021/12/31 00:42:33;;;;;;;3.70;1.40;;;13.90;97.80;;;;;;5040659;28;20483;-77
2021/12/31 00:44:59;;;;;;;6.03;2.00;;;13.90;97.80;;;;;;5040318;28;20464;-76
2021/12/31 00:47:25;;;;;;;6.30;1.60;;;13.90;97.70;;;;;;5039094;28;20190;-77
2021/12/31 00:49:50;;;;;;;4.17;2.00;;;13.90;97.80;;;;;;5040003;28;20165;-77
2021/12/31 00:52:16;;;;;;;6.40;1.53;;;13.90;97.70;;;;;;5041304;28;20169;-77
2021/12/31 00:54:43;;;;;;;2.60;1.50;;;13.90;97.60;;;;;;5056207;28;20251;-78
2021/12/31 00:57:10;;;;;;;5.27;1.33;;;13.90;97.60;;;;;;5039427;28;20186;-77
2021/12/31 00:59:36;;;;;;;4.90;2.10;;;13.90;97.60;;;;;;5055756;28;20916;-77
2021/12/31 01:02:04;;;;;;;2.43;1.50;;;13.90;97.50;;;;;;5035123;28;20404;-76
2021/12/31 01:04:30;;;;;;;9.90;2.90;;;13.90;97.40;;;;;;5034030;28;20168;-77
2021/12/31 01:06:57;;;;;;;4.77;1.87;;;13.90;97.40;;;;;;5033659;28;20958;-77
2021/12/31 01:09:24;;;;;;;3.27;2.50;;;13.90;97.30;;;;;;5033507;28;20464;-77
2021/12/31 01:11:50;;;;;;;7.20;1.90;;;13.90;97.30;;;;;;5033265;28;20425;-76
2021/12/31 01:14:35;;;;;;;3.33;1.73;;;13.90;97.20;;;;;;5050457;28;20456;-76
2021/12/31 01:17:04;;;;;;;8.30;2.07;;;13.90;97.20;;;;;;4996276;28;20477;-77
2021/12/31 01:19:46;;;;;;;4.30;1.73;;;13.90;97.10;;;;;;4996534;28;20720;-76
2021/12/31 01:22:18;;;;;;;5.00;2.67;;;13.90;97.10;;;;;;4995140;28;20928;-76
2021/12/31 01:24:44;;;;;;;4.33;2.20;;;13.90;97.00;;;;;;4994384;28;20430;-76
2021/12/31 01:27:11;;;;;;;4.70;2.20;;;13.90;97.00;;;;;;4995422;28;20496;-77
2021/12/31 01:29:37;;;;;;;4.43;1.70;;;13.90;97.40;;;;;;5010561;28;20506;-77
2021/12/31 01:32:04;;;;;;;6.80;3.20;;;13.90;96.80;;;;;;5012373;28;20413;-79
2021/12/31 01:34:29;;;;;;;10.53;2.70;;;13.90;96.70;;;;;;5026609;28;20199;-78
2021/12/31 01:36:55;;;;;;;3.83;2.20;;;13.90;96.70;;;;;;5012550;28;20457;-77
2021/12/31 01:39:21;;;;;;;5.37;2.60;;;13.90;96.60;;;;;;5013411;28;20175;-78
2021/12/31 01:41:47;;;;;;;5.53;3.33;;;13.90;96.60;;;;;;5010685;28;20163;-78
2021/12/31 01:44:13;;;;;;;7.83;2.70;;;13.90;96.50;;;;;;5014901;28;20490;-80
2021/12/31 01:47:03;;;;;;;6.83;1.90;;;13.90;96.50;;;;;;5015662;28;20449;-79
2021/12/31 01:49:36;;;;;;;7.50;2.90;;;13.90;96.40;;;;;;5009238;28;20584;-80
2021/12/31 01:52:04;;;;;;;3.50;1.93;;;13.90;96.40;;;;;;5007535;28;20411;-78
2021/12/31 01:54:32;;;;;;;3.63;2.50;;;13.90;96.40;;;;;;5024000;28;20475;-80
2021/12/31 01:57:01;;;;;;;3.40;2.23;;;13.90;96.40;;;;;;5006494;28;20437;-79
2021/12/31 01:59:28;;;;;;;4.97;2.43;;;13.90;96.40;;;;;;5004804;28;20418;-79
2021/12/31 02:01:55;;;;;;;3.73;2.37;;;13.90;96.40;;;;;;5004605;28;20915;-80
2021/12/31 02:04:21;;;;;;;4.17;2.10;;;13.90;96.40;;;;;;5004466;28;20413;-76
2021/12/31 02:06:47;;;;;;;6.10;2.77;;;13.90;96.40;;;;;;5017215;28;20460;-76
2021/12/31 02:09:13;;;;;;;11.30;2.40;;;13.80;96.30;;;;;;5017216;28;20172;-76
2021/12/31 02:11:39;;;;;;;6.20;2.27;;;13.80;96.20;;;;;;5014722;28;20411;-79
2021/12/31 02:14:06;;;;;;;4.37;1.90;;;13.80;96.20;;;;;;5009809;28;20245;-80
2021/12/31 02:16:32;;;;;;;6.50;1.77;;;13.90;96.30;;;;;;5011780;28;20419;-78
2021/12/31 02:19:09;;;;;;;3.00;1.83;;;13.80;96.20;;;;;;5011960;28;20426;-79
2021/12/31 02:21:34;;;;;;;5.53;1.57;;;13.80;96.20;;;;;;5020795;28;20483;-77
2021/12/31 02:24:05;;;;;;;6.97;2.10;;;13.80;96.10;;;;;;5028030;28;20420;-79
2021/12/31 02:26:31;;;;;;;2.63;1.63;;;13.80;96.10;;;;;;5028881;28;20277;-79
2021/12/31 02:28:57;;;;;;;4.03;2.10;;;13.90;96.10;;;;;;5029618;28;20429;-79
2021/12/31 02:31:22;;;;;;;3.80;1.50;;;13.80;96.00;;;;;;5029456;28;20201;-80
2021/12/31 02:33:49;;;;;;;3.83;1.70;;;13.80;95.90;;;;;;5028215;28;20224;-77
2021/12/31 02:36:15;;;;;;;5.40;1.40;;;13.90;96.00;;;;;;5028119;28;20193;-79
2021/12/31 02:38:41;;;;;;;2.30;1.50;;;13.90;95.70;;;;;;5011245;28;20813;-80
2021/12/31 02:41:07;;;;;;;3.47;1.57;;;13.80;95.60;;;;;;5028170;28;20420;-79
2021/12/31 02:43:32;;;;;;;4.90;1.80;;;13.90;95.60;;;;;;5029915;28;20176;-79
2021/12/31 02:45:58;;;;;;;2.17;1.90;;;13.80;95.60;;;;;;5030259;28;20191;-80
2021/12/31 02:48:25;;;;;;;2.80;1.40;;;13.80;95.50;;;;;;5031845;28;20192;-79
2021/12/31 02:50:53;;;;;;;4.60;1.50;;;13.90;95.60;;;;;;5030339;28;20204;-78
2021/12/31 02:53:29;;;;;;;2.50;1.30;;;13.90;95.60;;;;;;5029279;28;20478;-79
2021/12/31 02:56:01;;;;;;;4.37;1.40;;;13.90;95.50;;;;;;5028424;28;20428;-78
2021/12/31 02:58:28;;;;;;;10.83;2.40;;;13.90;95.40;;;;;;5028084;28;20420;-77
2021/12/31 03:00:54;;;;;;;2.80;1.40;;;13.90;95.40;;;;;;5028224;28;20425;-79
2021/12/31 03:03:20;;;;;;;2.50;1.30;;;13.90;95.40;;;;;;5026176;28;20429;-78
2021/12/31 03:05:46;;;;;;;5.00;2.60;;;13.90;95.30;;;;;;5026306;28;20414;-79
2021/12/31 03:08:14;;;;;;;4.20;1.70;;;13.80;95.30;;;;;;5025174;28;20410;-79
2021/12/31 03:10:41;;;;;;;2.13;1.20;;;13.80;95.20;;;;;;5023378;28;20481;-80
2021/12/31 03:13:09;;;;;;;3.20;1.77;;;13.80;95.20;;;;;;5026938;28;20514;-78
2021/12/31 03:15:36;;;;;;;2.13;1.27;;;13.80;95.20;;;;;;5022721;28;21000;-79
2021/12/31 03:18:03;;;;;;;4.47;1.83;;;13.80;95.10;;;;;;5043012;28;20922;-78
2021/12/31 03:20:46;;;;;;;4.63;1.93;;;13.80;95.10;;;;;;5044702;28;20481;-78
2021/12/31 03:23:12;;;;;;;6.20;2.10;;;13.90;95.20;;;;;;5047409;28;20403;-77
2021/12/31 03:25:38;;;;;;;2.20;1.63;;;13.90;95.40;;;;;;5047231;28;20419;-79
2021/12/31 03:28:04;;;;;;;1.80;1.20;;;13.80;95.00;;;;;;5047566;28;20216;-80
2021/12/31 03:30:30;;;;;;;5.57;2.10;;;13.80;94.90;;;;;;5041291;28;20174;-78
2021/12/31 03:32:55;;;;;;;3.03;1.50;;;13.90;94.80;;;;;;5021202;28;20490;-79
2021/12/31 03:35:21;;;;;;;2.30;1.30;;;13.90;94.90;;;;;;5023344;28;20163;-78
2021/12/31 03:37:48;;;;;;;2.90;1.20;;;13.90;94.90;;;;;;5023759;28;20210;-77
2021/12/31 03:40:14;;;;;;;2.63;1.60;;;13.90;94.80;;;;;;5043538;28;20174;-77
2021/12/31 03:42:40;;;;;;;3.10;1.93;;;13.90;94.80;;;;;;5042777;28;20443;-80
2021/12/31 03:45:06;;;;;;;1.63;1.10;;;13.90;94.50;;;;;;5053833;28;20188;-78
2021/12/31 03:47:32;;;;;;;2.20;1.23;;;13.90;94.50;;;;;;5050908;28;20417;-79
2021/12/31 03:49:58;;;;;;;3.67;1.70;;;13.90;94.40;;;;;;5050873;28;20407;-79
2021/12/31 03:52:23;;;;;;;2.50;1.57;;;13.90;94.40;;;;;;5050233;28;20204;-76
2021/12/31 03:54:49;;;;;;;5.47;1.10;;;13.90;94.40;;;;;;5048435;28;20553;-76
2021/12/31 03:57:15;;;;;;;1.97;1.37;;;13.90;94.30;;;;;;5030993;28;20194;-79
2021/12/31 03:59:40;;;;;;;2.83;1.60;;;13.90;94.40;;;;;;5050406;28;20173;-80
2021/12/31 04:02:06;;;;;;;4.90;1.20;;;13.90;94.30;;;;;;5049811;28;20233;-80
2021/12/31 04:04:32;;;;;;;4.63;1.70;;;13.90;94.30;;;;;;5051758;28;20174;-80
2021/12/31 04:06:58;;;;;;;3.47;1.23;;;13.90;94.20;;;;;;5050677;28;20702;-78
2021/12/31 04:09:23;;;;;;;3.63;1.30;;;13.90;93.90;;;;;;5033238;28;20174;-80
2021/12/31 04:11:49;;;;;;;3.77;1.30;;;13.90;93.90;;;;;;5051737;28;20216;-79
2021/12/31 04:14:14;;;;;;;5.90;1.83;;;13.90;93.90;;;;;;5051753;28;20222;-79
2021/12/31 04:16:40;;;;;;;3.10;1.40;;;13.90;94.00;;;;;;5052982;28;20178;-79
2021/12/31 04:19:06;;;;;;;4.30;1.57;;;13.90;94.00;;;;;;5053792;28;20189;-77
2021/12/31 04:21:33;;;;;;;3.03;1.70;;;13.80;94.00;;;;;;5052157;28;20169;-79
2021/12/31 04:24:13;;;;;;;2.40;1.40;;;13.80;94.00;;;;;;5053621;28;20181;-78
2021/12/31 04:26:39;;;;;;;3.73;1.43;;;13.80;94.10;;;;;;5053727;28;20419;-78
2021/12/31 04:29:05;;;;;;;4.23;1.80;;;13.80;94.20;;;;;;5035027;28;20420;-80
2021/12/31 04:31:31;;;;;;;7.70;1.63;;;13.70;94.20;;;;;;5051752;28;20420;-79
2021/12/31 04:33:58;;;;;;;2.53;1.43;;;13.70;94.20;;;;;;5050793;28;20273;-78
2021/12/31 04:36:24;;;;;;;3.63;1.37;;;13.70;94.20;;;;;;5043872;28;20187;-79
2021/12/31 04:38:50;;;;;;;2.37;1.20;;;13.70;94.30;;;;;;5033505;28;20493;-80
2021/12/31 04:41:15;;;;;;;4.10;1.23;;;13.60;94.30;;;;;;5032382;28;20173;-78
2021/12/31 04:43:41;;;;;;;3.93;1.60;;;13.60;94.30;;;;;;5033053;28;20167;-78
2021/12/31 04:46:07;;;;;;;2.90;1.53;;;13.60;94.40;;;;;;5031871;28;20192;-78
2021/12/31 04:48:33;;;;;;;3.23;1.53;;;13.50;94.40;;;;;;5030244;28;20171;-78
2021/12/31 04:50:58;;;;;;;4.83;1.53;;;13.60;94.40;;;;;;5031715;28;20216;-79
2021/12/31 04:53:24;;;;;;;5.27;1.33;;;13.60;94.40;;;;;;5031232;28;20212;-79
2021/12/31 04:55:50;;;;;;;3.07;1.80;;;13.60;94.40;;;;;;5045429;28;20168;-79
2021/12/31 04:58:16;;;;;;;1.80;1.30;;;13.60;94.30;;;;;;5029911;28;20151;-79
2021/12/31 05:00:42;;;;;;;5.53;1.90;;;13.60;94.20;;;;;;5028881;28;20436;-79
2021/12/31 05:03:09;;;;;;;4.27;1.37;;;13.60;94.10;;;;;;5027350;28;20197;-79
2021/12/31 05:05:36;;;;;;;6.17;1.60;;;13.60;94.00;;;;;;5025324;28;20190;-79
2021/12/31 05:08:03;;;;;;;2.97;1.17;;;13.60;94.00;;;;;;5027380;28;20427;-78
2021/12/31 05:10:31;;;;;;;2.10;1.10;;;13.60;93.90;;;;;;5026491;28;20429;-80
2021/12/31 05:12:58;;;;;;;2.00;1.40;;;13.60;94.00;;;;;;5031641;28;20458;-81
2021/12/31 05:15:27;;;;;;;1.53;1.40;;;13.60;93.90;;;;;;5030086;28;20398;-80
2021/12/31 05:17:54;;;;;;;7.27;1.60;;;13.60;93.90;;;;;;5030020;28;20439;-80
2021/12/31 05:20:20;;;;;;;2.40;1.43;;;13.60;93.80;;;;;;5031269;28;20420;-77
2021/12/31 05:22:46;;;;;;;3.17;1.37;;;13.60;93.80;;;;;;5033913;28;20414;-77
2021/12/31 05:25:12;;;;;;;4.27;1.77;;;13.60;93.80;;;;;;5031041;28;20468;-77
2021/12/31 05:27:38;;;;;;;9.83;1.53;;;13.60;93.70;;;;;;5032966;28;20438;-77
2021/12/31 05:30:05;;;;;;;2.27;1.60;;;13.60;93.70;;;;;;5030040;28;20179;-77
2021/12/31 05:32:31;;;;;;;2.30;1.80;;;13.60;93.70;;;;;;5048368;28;20200;-77
2021/12/31 05:34:57;;;;;;;3.00;1.20;;;13.60;93.70;;;;;;5030168;28;20417;-77
2021/12/31 05:37:23;;;;;;;2.63;1.40;;;13.60;93.60;;;;;;5030745;28;20445;-77
2021/12/31 05:39:48;;;;;;;3.13;1.70;;;13.60;93.60;;;;;;5031208;28;20412;-78
2021/12/31 05:42:14;;;;;;;6.57;1.83;;;13.60;93.60;;;;;;5031938;28;20178;-77
2021/12/31 05:44:40;;;;;;;2.53;1.50;;;13.60;93.60;;;;;;5032015;28;20186;-77
2021/12/31 05:47:07;;;;;;;5.20;1.70;;;13.60;93.70;;;;;;5031528;28;20423;-78
2021/12/31 05:49:32;;;;;;;3.97;1.93;;;13.60;93.70;;;;;;5023366;28;20176;-77
2021/12/31 05:51:58;;;;;;;4.20;1.90;;;13.50;93.60;;;;;;5010584;28;20411;-78
2021/12/31 05:54:24;;;;;;;4.40;1.63;;;13.50;93.60;;;;;;5012583;28;20246;-78
2021/12/31 05:56:51;;;;;;;1.60;1.20;;;13.50;93.70;;;;;;5014266;28;20172;-77
2021/12/31 05:59:17;;;;;;;4.80;1.33;;;13.50;93.70;;;;;;5012359;28;20199;-78
2021/12/31 06:01:43;;;;;;;3.60;1.60;;;13.50;93.70;;;;;;5006722;28;20411;-77
2021/12/31 06:04:09;;;;;;;1.90;1.43;;;13.50;93.70;;;;;;5008619;28;20539;-78
2021/12/31 06:06:35;;;;;;;2.83;1.47;;;13.50;93.70;;;;;;5011767;28;20217;-78
2021/12/31 06:09:00;;;;;;;4.33;1.63;;;13.50;93.60;;;;;;5011436;28;20420;-77
2021/12/31 06:11:27;;;;;;;2.00;1.70;;;13.50;93.60;;;;;;5011679;28;20411;-78
2021/12/31 06:14:01;;;;;;;3.27;1.20;;;13.50;93.50;;;;;;5007283;28;20297;-78
2021/12/31 06:16:28;;;;;;;3.13;1.50;;;13.50;93.50;;;;;;5010778;28;20438;-78
2021/12/31 06:18:54;;;;;;;3.00;1.60;;;13.50;93.40;;;;;;5005432;28;20419;-79
2021/12/31 06:21:19;;;;;;;2.47;1.67;;;13.50;93.40;;;;;;5004374;28;20445;-78
2021/12/31 06:23:45;;;;;;;5.70;1.87;;;13.50;93.40;;;;;;5004991;28;20249;-77
2021/12/31 06:26:11;;;;;;;3.27;1.50;;;13.50;93.40;;;;;;5003949;28;20236;-80
2021/12/31 06:28:36;;;;;;;4.50;1.90;;;13.50;93.40;;;;;;5004345;28;20172;-79
2021/12/31 06:31:02;;;;;;;4.77;1.40;;;13.50;93.20;;;;;;5004141;28;20179;-80
2021/12/31 06:33:28;;;;;;;2.70;1.30;;;13.50;93.20;;;;;;5003522;28;20210;-78
2021/12/31 06:35:54;;;;;;;2.70;1.50;;;13.50;93.30;;;;;;5001908;28;20518;-78
2021/12/31 06:38:20;;;;;;;3.47;1.63;;;13.50;93.30;;;;;;5002999;28;20189;-78
2021/12/31 06:40:46;;;;;;;3.00;1.30;;;13.50;93.30;;;;;;5016171;28;20198;-81
2021/12/31 06:43:11;;;;;;;2.20;1.30;;;13.50;93.30;;;;;;5007412;28;20423;-80
2021/12/31 06:45:37;;;;;;;1.93;1.53;;;13.40;93.30;;;;;;5008968;28;20169;-78
2021/12/31 06:48:04;;;;;;;4.50;2.33;;;13.40;93.30;;;;;;5008592;28;20177;-79
2021/12/31 06:50:30;;;;;;;1.73;1.23;;;13.40;93.30;;;;;;5008930;28;20180;-77
2021/12/31 06:52:56;;;;;;;3.57;1.33;;;13.30;93.30;;;;;;5007617;28;20475;-80
2021/12/31 06:55:21;;;;;;;2.23;1.60;;;13.30;93.40;;;;;;5006478;28;20415;-80
2021/12/31 06:57:49;;;;;;;4.60;1.43;;;13.30;93.50;;;;;;5009136;28;20207;-79
2021/12/31 07:00:16;;;;;;;5.90;1.60;;;13.20;93.50;;;;;;5009461;28;20165;-80
2021/12/31 07:02:41;;;;;;;5.23;1.47;;;13.20;93.50;;;;;;5009083;28;20391;-79
2021/12/31 07:05:07;;;;;;;1.77;1.20;;;13.20;93.60;;;;;;5007502;28;20497;-78
2021/12/31 07:07:33;;;;;;;5.17;1.30;;;13.10;93.60;;;;;;5008047;28;20180;-79
2021/12/31 07:09:59;;;;;;;5.90;1.60;;;13.00;93.80;;;;;;5022941;28;20435;-80
2021/12/31 07:12:24;;;;;;;3.67;1.50;;;12.90;94.00;;;;;;5030050;28;20235;-81
2021/12/31 07:14:50;;;;;;;2.63;1.20;;;12.80;94.30;;;;;;5028207;28;20414;-80
2021/12/31 07:17:16;;;;;;;3.20;1.70;;;12.70;94.30;;;;;;5028152;28;20197;-81
2021/12/31 07:19:43;;;;;;;2.77;1.90;;;12.70;94.50;;;;;;5027007;28;20179;-79
2021/12/31 07:22:10;;;;;;;6.03;2.47;;;12.60;94.60;;;;;;5024120;28;20167;-81
2021/12/31 07:24:36;;;;;;;8.57;3.37;;;12.60;94.80;;;;;;5021345;28;20426;-78
2021/12/31 07:27:02;;;;;;;6.50;2.50;;;12.50;94.90;;;;;;5021044;28;20431;-80
2021/12/31 07:29:28;;;;;;;7.90;3.00;;;12.50;95.00;;;;;;5023700;28;20440;-79
2021/12/31 07:31:53;;;;;;;5.77;2.63;;;12.40;95.10;;;;;;5029206;28;20171;-80
2021/12/31 07:34:19;;;;;;;4.40;2.30;;;12.40;95.30;;;;;;5036097;28;20218;-78
2021/12/31 07:36:45;;;;;;;7.50;3.23;;;12.40;95.40;;;;;;5034205;28;20193;-80
2021/12/31 07:39:13;;;;;;;6.60;2.40;;;12.40;95.50;;;;;;5030374;28;20444;-78
2021/12/31 07:41:39;;;;;;;9.00;3.30;;;12.40;95.60;;;;;;5035271;28;20277;-78
2021/12/31 07:44:06;;;;;;;5.10;2.60;;;12.40;95.60;;;;;;5038942;28;20486;-78
2021/12/31 07:46:32;;;;;;;5.80;2.90;;;12.40;95.60;;;;;;5039318;28;20517;-78
2021/12/31 07:48:58;;;;;;;7.00;2.60;;;12.40;95.60;;;;;;5038454;28;20444;-78
2021/12/31 07:51:24;;;;;;;3.80;2.03;;;12.40;95.70;;;;;;5035160;28;20410;-80
2021/12/31 07:53:49;;;;;;;2.70;1.93;;;12.50;95.80;;;;;;5030417;28;20191;-79
2021/12/31 07:56:18;;;;;;;2.83;1.83;;;12.50;95.60;;;;;;5030179;28;20187;-78
2021/12/31 07:58:46;;;;;;;2.63;1.63;;;12.60;95.50;;;;;;5029030;28;20371;-79
2021/12/31 08:01:12;;;;;;;4.93;2.20;;;12.70;95.50;;;;;;5027829;28;20418;-80
2021/12/31 08:03:38;;;;;;;2.67;1.60;;;12.70;95.30;;;;;;5028586;28;20933;-77
2021/12/31 08:06:03;;;;;;;2.80;1.77;;;12.70;95.20;;;;;;5027578;28;20322;-78
2021/12/31 08:08:29;;;;;;;5.20;2.03;;;12.70;95.10;;;;;;5005783;28;20230;-78
2021/12/31 08:10:55;;;;;;;2.47;1.50;;;12.80;95.00;;;;;;5021680;28;20175;-82
2021/12/31 08:13:21;;;;;;;6.07;1.90;;;12.80;95.00;;;;;;5022869;28;20301;-79
2021/12/31 08:15:46;;;;;;;4.50;2.30;;;12.80;94.90;;;;;;5023343;28;20652;-80
2021/12/31 08:18:12;;;;;;;6.53;1.90;;;12.90;94.80;;;;;;5027117;28;20459;-82
2021/12/31 08:20:38;;;;;;;2.37;1.70;;;12.90;94.70;;;;;;5024875;28;20203;-78
2021/12/31 08:23:09;;;;;;;2.70;1.70;;;12.90;94.60;;;;;;5022193;28;20175;-80
2021/12/31 08:25:38;;;;;;;5.57;2.30;;;13.00;94.60;;;;;;5024782;28;20190;-80
2021/12/31 08:28:04;;;;;;;6.33;1.97;;;13.10;94.40;;;;;;5021689;28;20489;-80
2021/12/31 08:30:30;;;;;;;4.70;2.10;;;13.10;94.30;;;;;;5023343;28;20431;-80
2021/12/31 08:32:56;;;;;;;3.67;2.60;;;13.10;94.20;;;;;;5023585;28;20453;-81
2021/12/31 08:35:22;;;;;;;4.30;1.70;;;13.20;94.10;;;;;;5024597;28;20182;-80
2021/12/31 08:37:47;;;;;;;5.00;2.37;;;13.20;94.00;;;;;;5023340;28;20200;-78
2021/12/31 08:40:13;;;;;;;2.90;2.10;;;13.20;93.80;;;;;;5022942;28;20171;-80
2021/12/31 08:42:40;;;;;;;3.67;1.70;;;13.20;93.60;;;;;;5020736;28;20253;-80
2021/12/31 08:45:06;;;;;;;3.63;1.70;;;13.30;93.60;;;;;;5021413;28;20436;-78
2021/12/31 08:47:32;;;;;;;6.70;2.40;;;13.30;93.40;;;;;;5021087;28;20799;-79
2021/12/31 08:49:57;;;;;;;4.70;2.53;;;13.30;93.40;;;;;;5021527;28;20406;-78
2021/12/31 08:52:23;;;;;;;7.43;3.07;;;13.30;93.40;;;;;;5025728;28;20171;-80
2021/12/31 08:54:49;;;;;;;7.83;2.27;;;13.30;92.90;;;;;;5025898;28;20203;-78
2021/12/31 08:57:15;;;;;;;3.50;2.43;;;13.30;92.90;;;;;;5025381;28;20206;-81
2021/12/31 08:59:41;;;;;;;1.90;1.43;;;13.30;93.20;;;;;;5027452;28;20186;-81
2021/12/31 09:02:07;;;;;;;2.53;1.50;;;13.30;92.90;;;;;;5029050;28;20419;-78
2021/12/31 09:04:33;;;;;;;4.23;1.67;;;13.30;92.70;;;;;;5028193;28;20419;-81
2021/12/31 09:06:59;;;;;;;8.93;3.30;;;13.30;92.90;;;;;;5023739;28;20468;-77
2021/12/31 09:09:25;;;;;;;5.40;3.33;;;13.30;93.00;;;;;;5023796;28;20179;-80
2021/12/31 09:11:51;;;;;;;8.60;5.53;;;13.40;93.10;;;;;;5025049;28;20420;-80
2021/12/31 09:14:16;;;;;;;3.17;1.67;;;13.40;92.90;;;;;;5027063;28;20191;-80
2021/12/31 09:16:45;;;;;;;6.30;1.70;;;13.40;92.60;;;;;;5031766;28;20223;-79
2021/12/31 09:19:12;;;;;;;4.30;2.30;;;13.40;92.60;;;;;;5019230;28;20688;-80
2021/12/31 09:21:39;;;;;;;5.00;2.40;;;13.40;92.70;;;;;;5017072;28;20419;-79
2021/12/31 09:24:05;;;;;;;3.10;1.77;;;13.40;92.60;;;;;;5001778;28;20431;-80
2021/12/31 09:26:30;;;;;;;4.00;2.10;;;13.50;92.60;;;;;;5020653;28;20442;-79
2021/12/31 09:28:56;;;;;;;4.67;2.50;;;13.50;92.40;;;;;;5022479;28;20476;-80
2021/12/31 09:31:22;;;;;;;3.40;2.10;;;13.50;92.60;;;;;;5017119;28;20167;-78
2021/12/31 09:33:48;;;;;;;2.00;1.70;;;13.60;92.50;;;;;;5033309;28;20290;-79
2021/12/31 09:36:16;;;;;;;3.20;1.70;;;13.60;92.30;;;;;;5031788;28;20199;-80
2021/12/31 09:38:42;;;;;;;2.00;1.60;;;13.60;92.30;;;;;;4991955;28;20319;-82
2021/12/31 09:41:09;;;;;;;8.17;3.70;;;13.60;92.10;;;;;;5029897;28;20441;-82
2021/12/31 09:43:37;;;;;;;3.67;1.70;;;13.60;91.90;;;;;;5012649;28;20179;-83
2021/12/31 09:46:03;;;;;;;3.90;2.03;;;13.70;92.50;;;;;;5024317;28;20450;-80
2021/12/31 09:48:28;;;;;;;3.57;2.07;;;13.70;92.10;;;;;;5039739;28;20449;-80
2021/12/31 09:50:56;;;;;;;3.90;2.57;;;13.70;92.10;;;;;;5029259;28;20191;-81
2021/12/31 09:53:24;;;;;;;7.07;3.20;;;13.70;91.90;;;;;;5023996;28;20181;-82
2021/12/31 09:55:53;;;;;;;4.73;3.37;;;13.70;91.70;;;;;;5022767;28;20492;-79
2021/12/31 09:58:23;;;;;;;4.80;2.83;;;13.70;91.90;;;;;;5025752;28;20410;-80
2021/12/31 10:00:52;;;;;;;3.50;1.50;;;13.70;91.90;;;;;;5024195;28;20449;-80
2021/12/31 10:03:25;;;;;;;4.40;1.90;;;13.70;91.70;;;;;;5022856;28;20425;-79
2021/12/31 10:05:53;;;;;;;2.97;1.70;;;13.70;91.50;;;;;;5027292;28;20489;-81
2021/12/31 10:08:23;;;;;;;3.10;1.47;;;13.70;91.50;;;;;;5025845;28;20752;-81
2021/12/31 10:11:08;;;;;;;3.17;1.60;;;13.70;91.40;;;;;;5026232;28;20559;-80
2021/12/31 10:13:42;;;;;;;2.47;2.27;;;13.70;91.40;;;;;;5030407;28;20469;-79
2021/12/31 10:16:27;;;;;;;3.67;1.93;;;13.80;91.50;;;;;;5028571;28;21033;-81
2021/12/31 10:19:10;;;;;;;2.00;1.70;;;13.80;91.40;;;;;;5016244;28;20408;-78
2021/12/31 10:21:41;;;;;;;8.17;3.47;;;13.90;91.30;;;;;;5038590;28;20425;-79
2021/12/31 10:24:26;;;;;;;2.73;2.23;;;14.00;91.10;;;;;;5035313;28;20443;-77
2021/12/31 10:26:56;;;;;;;6.20;3.43;;;14.00;91.20;;;;;;5037973;28;20435;-77
2021/12/31 10:29:22;;;;;;;2.93;2.40;;;14.10;91.00;;;;;;5034388;28;20472;-78
2021/12/31 10:31:53;;;;;;;4.37;2.80;;;14.20;91.10;;;;;;5036022;28;20432;-78
2021/12/31 10:34:34;;;;;;;5.13;2.20;;;14.30;91.00;;;;;;5033870;28;20462;-79
2021/12/31 10:37:15;;;;;;;3.33;1.83;;;14.50;91.00;;;;;;5034683;28;20468;-78
2021/12/31 10:39:42;;;;;;;7.47;4.67;;;14.60;90.30;;;;;;5047128;28;20462;-78
2021/12/31 10:42:14;;;;;;;3.50;1.80;;;14.80;90.20;;;;;;5030377;28;20414;-80
2021/12/31 10:44:50;;;;;;;3.53;1.90;;;14.90;89.00;;;;;;5030251;28;20420;-80
2021/12/31 10:47:38;;;;;;;13.03;8.70;;;15.00;88.40;;;;;;5029385;28;20479;-80
2021/12/31 10:50:06;;;;;;;11.80;8.37;;;15.10;87.70;;;;;;5030360;28;20530;-80
2021/12/31 10:53:07;;;;;;;8.90;4.90;;;15.10;85.90;;;;;;5028123;28;20452;-78
2021/12/31 10:55:39;;;;;;;6.07;2.97;;;15.20;86.30;;;;;;5008335;28;20433;-81
2021/12/31 10:58:06;;;;;;;4.03;2.90;;;15.30;86.50;;;;;;5029104;28;20493;-78
2021/12/31 11:00:38;;;;;;;15.13;10.10;;;15.30;85.60;;;;;;5028875;28;20589;-79
2021/12/31 11:03:08;;;;;;;6.70;3.93;;;15.40;84.90;;;;;;5029783;28;20489;-79
2021/12/31 11:05:34;;;;;;;8.80;5.87;;;15.50;84.90;;;;;;5030403;28;20446;-77
2021/12/31 11:08:05;;;;;;;3.00;1.83;;;15.40;84.20;;;;;;5017889;28;20418;-76
2021/12/31 11:10:37;;;;;;;11.30;2.63;;;15.40;84.30;;;;;;5048341;28;20447;-79
2021/12/31 11:13:15;;;;;;;10.23;4.83;;;15.50;84.10;;;;;;5034731;28;20474;-80
2021/12/31 11:15:48;;;;;;;3.47;2.27;;;15.50;84.90;;;;;;5034401;28;20436;-79
2021/12/31 11:18:23;;;;;;;7.57;4.17;;;15.50;83.90;;;;;;5017103;28;20426;-81
2021/12/31 11:20:55;;;;;;;8.30;5.40;;;15.40;82.70;;;;;;5016775;28;20422;-81
2021/12/31 11:23:32;;;;;;;17.93;12.53;;;15.30;84.00;;;;;;5030995;28;20482;-80
2021/12/31 11:26:06;;;;;;;4.20;3.27;;;15.20;84.50;;;;;;5029163;28;20511;-81
2021/12/31 11:28:36;;;;;;;8.80;5.90;;;15.10;84.90;;;;;;5026345;28;20910;-80
2021/12/31 11:31:17;;;;;;;15.17;8.30;;;15.00;85.50;;;;;;5025542;28;20402;-79
2021/12/31 11:33:45;;;;;;;8.60;3.70;;;15.00;85.90;;;;;;5034729;28;20459;-81
2021/12/31 11:36:12;;;;;;;7.00;4.20;;;14.90;85.50;;;;;;5028896;28;20468;-80
2021/12/31 11:38:39;;;;;;;5.47;3.20;;;14.90;85.90;;;;;;5031113;28;20410;-81
2021/12/31 11:41:22;;;;;;;3.77;2.13;;;14.80;85.90;;;;;;5029961;28;21801;-79
2021/12/31 11:44:09;;;;;;;4.90;2.90;;;14.80;86.20;;;;;;5031287;28;20625;-78
2021/12/31 11:46:44;;;;;;;5.00;2.37;;;14.80;86.70;;;;;;5029428;28;20519;-79
2021/12/31 11:49:21;;;;;;;8.87;5.57;;;14.70;86.40;;;;;;5031557;28;20404;-80
2021/12/31 11:52:23;;;;;;;11.63;6.53;;;14.70;86.90;;;;;;5049491;28;20520;-79
2021/12/31 11:55:18;;;;;;;13.37;8.00;;;14.80;87.20;;;;;;5033732;28;20480;-79
2021/12/31 11:57:44;;;;;;;8.00;4.90;;;14.90;87.40;;;;;;5028294;28;20461;-81
2021/12/31 12:00:26;;;;;;;6.47;4.37;;;15.00;85.70;;;;;;5017441;28;20449;-78
2021/12/31 12:02:52;;;;;;;9.77;5.80;;;15.00;86.00;;;;;;5027606;28;20173;-80
2021/12/31 12:05:20;;;;;;;9.77;5.63;;;15.00;86.00;;;;;;5027317;28;20478;-81
2021/12/31 12:07:52;;;;;;;6.47;3.97;;;15.00;85.60;;;;;;5026462;28;20194;-79
2021/12/31 12:10:24;;;;;;;39.43;28.30;;;15.00;85.90;;;;;;5026854;28;20444;-80
2021/12/31 12:12:53;;;;;;;3.00;2.07;;;15.00;85.20;;;;;;5029770;28;20445;-82
2021/12/31 12:15:18;;;;;;;7.20;3.63;;;15.00;85.20;;;;;;5027930;28;20607;-80
2021/12/31 12:17:45;;;;;;;6.23;3.07;;;15.00;85.80;;;;;;5028859;28;20501;-78
2021/12/31 12:20:18;;;;;;;5.13;3.20;;;15.00;85.80;;;;;;5033265;28;20240;-81
2021/12/31 12:22:54;;;;;;;5.67;3.10;;;14.90;85.80;;;;;;5033130;28;20468;-81
2021/12/31 12:25:24;;;;;;;21.30;8.23;;;14.90;85.80;;;;;;5032582;28;20413;-78
2021/12/31 12:27:57;;;;;;;9.23;3.93;;;14.90;86.50;;;;;;5031760;28;20442;-79
2021/12/31 12:30:24;;;;;;;12.13;4.37;;;14.90;86.40;;;;;;5034048;28;20424;-78
2021/12/31 12:33:06;;;;;;;10.67;5.67;;;14.90;86.10;;;;;;5034248;28;20433;-81
2021/12/31 12:35:37;;;;;;;6.00;3.17;;;15.00;86.20;;;;;;5032259;28;20453;-79
2021/12/31 12:38:05;;;;;;;4.93;2.90;;;15.00;85.90;;;;;;5032350;28;20417;-81
2021/12/31 12:40:46;;;;;;;2.83;2.23;;;15.00;85.70;;;;;;5032107;28;20429;-81
2021/12/31 12:43:16;;;;;;;5.30;2.80;;;15.00;85.40;;;;;;5033006;28;20478;-82
2021/12/31 12:45:44;;;;;;;19.53;13.57;;;15.00;85.20;;;;;;5032339;28;20476;-80
2021/12/31 12:48:10;;;;;;;5.83;4.00;;;15.00;85.10;;;;;;5031518;28;20554;-79
2021/12/31 12:50:36;;;;;;;8.13;4.70;;;15.00;85.00;;;;;;5031120;28;20426;-78
2021/12/31 12:53:03;;;;;;;11.53;4.07;;;15.00;84.40;;;;;;5031248;28;20428;-79